createdAt,value
2018-05-18T21:21:53.597Z,17.30
2018-05-18T21:24:21.969Z,18.10
2018-05-18T21:26:49.344Z,19.03
2018-05-18T21:29:17.440Z,18.57
2018-05-18T21:31:44.866Z,19.10
2018-05-18T21:34:12.325Z,20.27
2018-05-18T21:36:39.715Z,19.67
2018-05-18T21:39:07.125Z,19.70
2018-05-18T21:41:34.510Z,19.83
2018-05-18T21:44:02.019Z,20.83
2018-05-18T21:46:29.377Z,21.07
2018-05-18T21:48:56.762Z,21.50
2018-05-18T21:51:24.140Z,20.60
2018-05-18T21:53:51.524Z,21.43
2018-05-18T21:56:19.068Z,21.63
2018-05-18T21:58:46.504Z,22.63
2018-05-18T22:01:13.941Z,21.50
2018-05-18T22:03:41.296Z,22.73
2018-05-18T22:06:08.737Z,21.43
2018-05-18T22:08:36.132Z,22.00
2018-05-18T22:11:03.519Z,21.57
2018-05-18T22:13:30.873Z,21.53
2018-05-18T22:15:58.266Z,21.83
2018-05-18T22:18:25.649Z,22.60
2018-05-18T22:20:53.049Z,22.40
2018-05-18T22:23:20.457Z,22.63
2018-05-18T22:25:47.859Z,23.03
2018-05-18T22:28:15.274Z,22.50
2018-05-18T22:30:42.679Z,22.60
2018-05-18T22:33:10.092Z,21.70
2018-05-18T22:35:37.466Z,23.53
2018-05-18T22:38:04.881Z,22.50
2018-05-18T22:40:32.316Z,20.57
2018-05-18T22:42:59.699Z,22.60
2018-05-18T22:45:27.129Z,21.87
2018-05-18T22:47:54.510Z,22.20
2018-05-18T22:50:21.931Z,20.87
2018-05-18T22:52:49.353Z,20.40
2018-05-18T22:55:16.732Z,22.00
2018-05-18T22:57:44.088Z,21.40
2018-05-18T23:00:12.324Z,20.57
2018-05-18T23:02:39.829Z,21.67
2018-05-18T23:05:07.185Z,20.90
2018-05-18T23:07:34.617Z,22.53
2018-05-18T23:10:02.006Z,20.27
2018-05-18T23:12:29.401Z,19.70
2018-05-18T23:14:56.901Z,21.60
2018-05-18T23:17:24.303Z,21.80
2018-05-18T23:19:51.680Z,21.60
2018-05-18T23:22:19.072Z,21.30
2018-05-18T23:24:46.565Z,20.30
2018-05-18T23:27:13.955Z,22.17
2018-05-18T23:29:41.311Z,20.60
2018-05-18T23:32:08.733Z,22.20
2018-05-18T23:34:36.096Z,21.10
2018-05-18T23:37:03.456Z,20.63
2018-05-18T23:39:30.843Z,20.80
2018-05-18T23:41:58.246Z,21.67
2018-05-18T23:44:25.636Z,21.50
2018-05-18T23:46:53.110Z,22.30
2018-05-18T23:49:20.503Z,21.70
2018-05-18T23:51:47.879Z,22.70
2018-05-18T23:54:15.328Z,21.83
2018-05-18T23:56:42.753Z,23.00
2018-05-18T23:59:10.156Z,24.20
